createdAt,value
2017-03-22T00:00:35.748Z,0
2017-03-22T00:01:35.730Z,0
2017-03-22T00:02:35.705Z,0
2017-03-22T00:03:35.382Z,0
2017-03-22T00:04:35.361Z,0
2017-03-22T00:05:35.642Z,0
2017-03-22T00:06:35.317Z,0
2017-03-22T00:07:35.602Z,0
2017-03-22T00:08:35.588Z,0
2017-03-22T00:09:35.558Z,0
2017-03-22T00:10:35.642Z,0
2017-03-22T00:11:34.896Z,0
2017-03-22T00:12:35.185Z,0
2017-03-22T00:13:35.172Z,0
2017-03-22T00:14:35.460Z,0
2017-03-22T00:15:35.454Z,0
2017-03-22T00:16:35.428Z,0
2017-03-22T00:17:35.094Z,0
2017-03-22T00:18:34.760Z,0
2017-03-22T00:19:35.364Z,0
2017-03-22T00:20:35.334Z,0
2017-03-22T00:21:35.325Z,0
2017-03-22T00:22:35.303Z,0
2017-03-22T00:23:35.320Z,0
2017-03-22T00:24:34.974Z,0
2017-03-22T00:25:34.924Z,0
2017-03-22T00:26:34.903Z,0
2017-03-22T00:27:34.898Z,0
2017-03-22T00:28:35.177Z,0
2017-03-22T00:29:34.846Z,0
2017-03-22T00:30:35.131Z,0
2017-03-22T00:31:35.112Z,0
2017-03-22T00:32:35.095Z,0
2017-03-22T00:33:35.085Z,0
2017-03-22T00:34:34.749Z,0
2017-03-22T00:35:35.031Z,0
2017-03-22T00:36:35.016Z,0
2017-03-22T00:37:34.368Z,0
2017-03-22T00:38:34.977Z,0
2017-03-22T00:39:34.644Z,0
2017-03-22T00:40:34.299Z,0
2017-03-22T00:41:34.910Z,0
2017-03-22T00:42:34.575Z,0
2017-03-22T00:43:34.869Z,0
2017-03-22T00:44:34.857Z,0
2017-03-22T00:45:34.837Z,0
2017-03-22T00:46:34.497Z,0
2017-03-22T00:47:34.501Z,0
2017-03-22T00:48:34.465Z,0
2017-03-22T00:49:34.794Z,0
2017-03-22T00:50:34.416Z,0
2017-03-22T00:51:33.812Z,0
2017-03-22T00:52:34.709Z,0
2017-03-22T00:53:34.725Z,0
2017-03-22T00:54:34.356Z,0
2017-03-22T00:55:34.636Z,0
2017-03-22T00:56:34.655Z,0
2017-03-22T00:57:34.272Z,0
2017-03-22T00:58:34.567Z,0
2017-03-22T00:59:34.549Z,0
2017-03-22T01:00:34.220Z,0
2017-03-22T01:01:34.192Z,0
2017-03-22T01:02:34.478Z,0
2017-03-22T01:03:34.482Z,0
2017-03-22T01:04:34.442Z,0
2017-03-22T01:05:34.418Z,0
2017-03-22T01:06:34.413Z,0
2017-03-22T01:07:34.390Z,0
2017-03-22T01:08:33.743Z,0
2017-03-22T01:09:34.347Z,0
2017-03-22T01:10:34.319Z,0
2017-03-22T01:11:34.302Z,0
2017-03-22T01:12:33.971Z,0
2017-03-22T01:13:34.314Z,0
2017-03-22T01:14:34.267Z,0
2017-03-22T01:15:33.592Z,0
2017-03-22T01:16:34.200Z,0
2017-03-22T01:17:33.869Z,0
2017-03-22T01:18:34.165Z,0
2017-03-22T01:19:34.148Z,0
2017-03-22T01:20:33.808Z,0
2017-03-22T01:21:34.099Z,0
2017-03-22T01:22:34.074Z,0
2017-03-22T01:23:34.263Z,0
2017-03-22T01:24:34.045Z,0
2017-03-22T01:25:33.699Z,0
2017-03-22T01:26:33.999Z,0
2017-03-22T01:27:33.980Z,0
2017-03-22T01:28:33.977Z,0
2017-03-22T01:29:33.935Z,0
2017-03-22T01:30:33.317Z,0
2017-03-22T01:31:33.890Z,0
2017-03-22T01:32:33.880Z,0
2017-03-22T01:33:33.547Z,0
2017-03-22T01:34:33.839Z,0
2017-03-22T01:35:33.497Z,0
2017-03-22T01:36:33.786Z,0
2017-03-22T01:37:33.773Z,0
2017-03-22T01:38:33.755Z,0
2017-03-22T01:39:33.734Z,0
2017-03-22T01:40:33.701Z,0
2017-03-22T01:41:33.367Z,0
2017-03-22T01:42:33.659Z,0
2017-03-22T01:43:33.334Z,0
2017-03-22T01:44:33.630Z,0
2017-03-22T01:45:32.977Z,0
2017-03-22T01:46:33.578Z,0
2017-03-22T01:47:33.246Z,0
2017-03-22T01:48:33.234Z,0
2017-03-22T01:49:33.520Z,0
2017-03-22T01:50:32.884Z,0
2017-03-22T01:51:33.487Z,0
2017-03-22T01:52:33.468Z,0
2017-03-22T01:53:32.812Z,0
2017-03-22T01:54:33.107Z,0
2017-03-22T01:55:33.389Z,0
2017-03-22T01:56:32.436Z,0
2017-03-22T01:57:33.361Z,0
2017-03-22T01:58:33.354Z,0
2017-03-22T01:59:33.317Z,0
2017-03-22T02:00:33.279Z,0
2017-03-22T02:01:32.643Z,0
2017-03-22T02:02:33.250Z,0
2017-03-22T02:03:32.921Z,0
2017-03-22T02:04:33.208Z,0
2017-03-22T02:05:32.925Z,0
2017-03-22T02:06:33.162Z,0
2017-03-22T02:07:33.147Z,0
2017-03-22T02:08:33.126Z,0
2017-03-22T02:09:33.099Z,0
2017-03-22T02:10:33.082Z,0
2017-03-22T02:11:32.744Z,0
2017-03-22T02:12:33.055Z,0
2017-03-22T02:13:33.027Z,0
2017-03-22T02:14:32.683Z,0
2017-03-22T02:15:32.658Z,0
2017-03-22T02:16:32.986Z,0
2017-03-22T02:17:32.626Z,0
2017-03-22T02:18:32.925Z,0
2017-03-22T02:19:32.898Z,0
2017-03-22T02:20:32.552Z,0
2017-03-22T02:21:32.864Z,0
2017-03-22T02:22:32.830Z,0
2017-03-22T02:23:32.501Z,0
2017-03-22T02:24:32.788Z,0
2017-03-22T02:25:32.755Z,0
2017-03-22T02:26:32.429Z,0
2017-03-22T02:27:32.722Z,0
2017-03-22T02:28:32.706Z,0
2017-03-22T02:29:32.371Z,0
2017-03-22T02:30:32.660Z,0
2017-03-22T02:31:32.630Z,0
2017-03-22T02:32:32.610Z,0
2017-03-22T02:33:32.592Z,0
2017-03-22T02:34:32.570Z,0
2017-03-22T02:35:32.549Z,0
2017-03-22T02:36:32.533Z,0
2017-03-22T02:37:32.509Z,0
2017-03-22T02:38:32.491Z,0
2017-03-22T02:39:32.489Z,0
2017-03-22T02:40:32.448Z,0
2017-03-22T02:41:32.426Z,0
2017-03-22T02:42:32.404Z,0
2017-03-22T02:43:32.392Z,0
2017-03-22T02:44:32.389Z,0
2017-03-22T02:45:32.019Z,0
2017-03-22T02:46:32.325Z,0
2017-03-22T02:47:32.294Z,0
2017-03-22T02:48:31.980Z,0
2017-03-22T02:49:32.258Z,0
2017-03-22T02:50:32.242Z,0
2017-03-22T02:51:32.204Z,0
2017-03-22T02:52:31.885Z,0
2017-03-22T02:53:31.861Z,0
2017-03-22T02:54:32.160Z,0
2017-03-22T02:55:32.133Z,0
2017-03-22T02:56:32.103Z,0
2017-03-22T02:57:32.087Z,0
2017-03-22T02:58:32.076Z,0
2017-03-22T02:59:32.047Z,0
2017-03-22T03:00:32.030Z,0
2017-03-22T03:01:32.000Z,0
2017-03-22T03:02:31.981Z,0
2017-03-22T03:03:31.965Z,0
2017-03-22T03:04:31.980Z,0
2017-03-22T03:05:31.920Z,0
2017-03-22T03:06:31.897Z,0
2017-03-22T03:07:31.879Z,0
2017-03-22T03:08:31.547Z,0
2017-03-22T03:09:31.893Z,0
2017-03-22T03:10:31.811Z,0
2017-03-22T03:11:31.791Z,0
2017-03-22T03:12:31.469Z,0
2017-03-22T03:13:31.760Z,0
2017-03-22T03:14:31.727Z,0
2017-03-22T03:15:31.397Z,0
2017-03-22T03:16:31.687Z,0
2017-03-22T03:17:31.039Z,0
2017-03-22T03:18:31.650Z,0
2017-03-22T03:19:31.625Z,0
2017-03-22T03:20:31.289Z,0
2017-03-22T03:21:31.269Z,0
2017-03-22T03:22:31.246Z,0
2017-03-22T03:23:31.837Z,0
2017-03-22T03:24:30.907Z,0
2017-03-22T03:25:31.503Z,0
2017-03-22T03:26:31.157Z,0
2017-03-22T03:27:31.463Z,0
2017-03-22T03:28:31.129Z,0
2017-03-22T03:29:31.414Z,0
2017-03-22T03:30:31.394Z,0
2017-03-22T03:31:31.063Z,0
2017-03-22T03:32:31.076Z,0
2017-03-22T03:33:31.339Z,0
2017-03-22T03:34:30.999Z,0
2017-03-22T03:35:31.283Z,0
2017-03-22T03:36:31.273Z,0
2017-03-22T03:37:31.247Z,0
2017-03-22T03:38:31.229Z,0
2017-03-22T03:39:31.212Z,0
2017-03-22T03:40:31.175Z,0
2017-03-22T03:41:31.161Z,0
2017-03-22T03:42:31.131Z,0
2017-03-22T03:43:30.803Z,0
2017-03-22T03:44:31.096Z,0
2017-03-22T03:45:30.758Z,0
2017-03-22T03:46:31.068Z,0
2017-03-22T03:47:30.731Z,0
2017-03-22T03:48:31.019Z,0
2017-03-22T03:49:31.043Z,0
2017-03-22T03:50:30.645Z,0
2017-03-22T03:51:30.942Z,0
2017-03-22T03:52:30.612Z,0
2017-03-22T03:53:30.906Z,0
2017-03-22T03:54:30.271Z,0
2017-03-22T03:55:30.546Z,0
2017-03-22T03:56:30.528Z,0
2017-03-22T03:57:30.522Z,0
2017-03-22T03:58:30.804Z,0
2017-03-22T03:59:30.775Z,0
2017-03-22T04:00:30.745Z,0
2017-03-22T04:01:30.109Z,0
2017-03-22T04:02:30.087Z,0
2017-03-22T04:03:30.697Z,0
2017-03-22T04:04:30.671Z,0
2017-03-22T04:05:30.647Z,0
2017-03-22T04:06:30.617Z,0
2017-03-22T04:07:30.605Z,0
2017-03-22T04:08:30.642Z,0
2017-03-22T04:09:30.674Z,0
2017-03-22T04:10:30.234Z,0
2017-03-22T04:11:30.528Z,0
2017-03-22T04:12:30.196Z,0
2017-03-22T04:13:30.481Z,0
2017-03-22T04:14:30.463Z,0
2017-03-22T04:15:30.438Z,0
2017-03-22T04:16:30.409Z,0
2017-03-22T04:17:30.391Z,0
2017-03-22T04:18:30.374Z,0
2017-03-22T04:19:30.046Z,0
2017-03-22T04:20:30.328Z,0
2017-03-22T04:21:29.994Z,0
2017-03-22T04:22:29.721Z,0
2017-03-22T04:23:30.268Z,0
2017-03-22T04:24:30.252Z,0
2017-03-22T04:25:29.908Z,0
2017-03-22T04:26:30.202Z,0
2017-03-22T04:27:29.862Z,0
2017-03-22T04:28:29.847Z,0
2017-03-22T04:29:30.144Z,0
2017-03-22T04:30:29.170Z,0
2017-03-22T04:31:30.092Z,0
2017-03-22T04:32:30.061Z,0
2017-03-22T04:33:29.744Z,0
2017-03-22T04:34:30.032Z,0
2017-03-22T04:35:29.689Z,0
2017-03-22T04:36:29.675Z,0
2017-03-22T04:37:29.969Z,0
2017-03-22T04:38:29.961Z,0
2017-03-22T04:39:29.921Z,0
2017-03-22T04:40:29.899Z,0
2017-03-22T04:41:29.557Z,0
2017-03-22T04:42:29.547Z,0
2017-03-22T04:43:29.619Z,0
2017-03-22T04:44:29.817Z,0
2017-03-22T04:45:29.787Z,0
2017-03-22T04:46:29.137Z,0
2017-03-22T04:47:29.115Z,0
2017-03-22T04:48:29.730Z,0
2017-03-22T04:49:29.704Z,0
2017-03-22T04:50:29.063Z,0
2017-03-22T04:51:29.659Z,0
2017-03-22T04:52:29.638Z,0
2017-03-22T04:53:29.627Z,0
2017-03-22T04:54:29.641Z,0
2017-03-22T04:55:29.289Z,0
2017-03-22T04:56:29.249Z,0
2017-03-22T04:57:29.218Z,0
2017-03-22T04:58:29.208Z,0
2017-03-22T04:59:29.492Z,0
2017-03-22T05:00:29.476Z,0
2017-03-22T05:01:29.148Z,0
2017-03-22T05:02:29.111Z,0
2017-03-22T05:03:29.414Z,0
2017-03-22T05:04:29.382Z,0
2017-03-22T05:05:29.049Z,0
2017-03-22T05:06:29.330Z,0
2017-03-22T05:07:29.312Z,0
2017-03-22T05:08:29.309Z,0
2017-03-22T05:09:28.959Z,0
2017-03-22T05:10:28.941Z,0
2017-03-22T05:11:28.911Z,0
2017-03-22T05:12:29.216Z,0
2017-03-22T05:13:29.194Z,0
2017-03-22T05:14:29.168Z,0
2017-03-22T05:15:29.140Z,0
2017-03-22T05:16:29.127Z,0
2017-03-22T05:17:28.787Z,0
2017-03-22T05:18:28.797Z,0
2017-03-22T05:19:29.064Z,0
2017-03-22T05:20:29.035Z,0
2017-03-22T05:21:28.724Z,0
2017-03-22T05:22:29.037Z,0
2017-03-22T05:23:28.661Z,0
2017-03-22T05:24:28.839Z,0
2017-03-22T05:25:28.924Z,0
2017-03-22T05:26:28.587Z,0
2017-03-22T05:27:28.885Z,0
2017-03-22T05:28:28.876Z,5
2017-03-22T05:29:28.846Z,5
2017-03-22T05:30:28.812Z,5
2017-03-22T05:31:28.797Z,5
2017-03-22T05:32:28.770Z,5
2017-03-22T05:33:28.761Z,5
2017-03-22T05:34:28.728Z,5
2017-03-22T05:35:28.409Z,5
2017-03-22T05:36:28.705Z,5
2017-03-22T05:37:28.720Z,5
2017-03-22T05:38:28.642Z,10
2017-03-22T05:39:28.313Z,10
2017-03-22T05:40:28.614Z,10
2017-03-22T05:41:28.573Z,10
2017-03-22T05:42:28.559Z,10
2017-03-22T05:43:28.272Z,10
2017-03-22T05:44:28.520Z,15
2017-03-22T05:45:28.488Z,15
2017-03-22T05:46:28.475Z,15
2017-03-22T05:47:28.443Z,15
2017-03-22T05:48:28.125Z,20
2017-03-22T05:49:28.413Z,20
2017-03-22T05:50:28.376Z,20
2017-03-22T05:51:28.355Z,20
2017-03-22T05:52:28.029Z,20
2017-03-22T05:53:28.332Z,25
2017-03-22T05:54:28.299Z,25
2017-03-22T05:55:28.275Z,25
2017-03-22T05:56:28.244Z,25
2017-03-22T05:57:28.237Z,25
2017-03-22T05:58:28.217Z,30
2017-03-22T05:59:28.194Z,30
2017-03-22T06:00:27.855Z,30
2017-03-22T06:01:27.826Z,30
2017-03-22T06:02:27.811Z,30
2017-03-22T06:03:28.100Z,35
2017-03-22T06:04:28.096Z,35
2017-03-22T06:05:28.048Z,35
2017-03-22T06:06:28.048Z,35
2017-03-22T06:07:28.018Z,35
2017-03-22T06:08:28.009Z,35
2017-03-22T06:09:27.678Z,40
2017-03-22T06:10:27.649Z,40
2017-03-22T06:11:27.928Z,40
2017-03-22T06:12:27.921Z,40
2017-03-22T06:13:27.573Z,40
2017-03-22T06:14:27.244Z,40
2017-03-22T06:15:26.895Z,40
2017-03-22T06:16:27.817Z,45
2017-03-22T06:17:27.794Z,45
2017-03-22T06:18:27.771Z,45
2017-03-22T06:19:27.746Z,50
2017-03-22T06:20:27.718Z,50
2017-03-22T06:21:27.746Z,50
2017-03-22T06:22:27.065Z,50
2017-03-22T06:23:27.680Z,50
2017-03-22T06:24:27.648Z,50
2017-03-22T06:25:27.315Z,50
2017-03-22T06:26:26.980Z,50
2017-03-22T06:27:26.952Z,50
2017-03-22T06:28:27.249Z,50
2017-03-22T06:29:27.545Z,50
2017-03-22T06:30:26.897Z,50
2017-03-22T06:31:27.175Z,50
2017-03-22T06:32:27.465Z,55
2017-03-22T06:33:27.454Z,55
2017-03-22T06:34:27.117Z,55
2017-03-22T06:35:27.401Z,55
2017-03-22T06:36:26.753Z,55
2017-03-22T06:37:27.370Z,60
2017-03-22T06:38:27.346Z,60
2017-03-22T06:39:27.325Z,65
2017-03-22T06:40:26.985Z,65
2017-03-22T06:41:26.960Z,70
2017-03-22T06:42:26.991Z,70
2017-03-22T06:43:27.237Z,70
2017-03-22T06:44:26.903Z,70
2017-03-22T06:45:26.885Z,75
2017-03-22T06:46:27.166Z,75
2017-03-22T06:47:27.147Z,75
2017-03-22T06:48:26.825Z,75
2017-03-22T06:49:27.171Z,75
2017-03-22T06:50:26.771Z,75
2017-03-22T06:51:26.745Z,75
2017-03-22T06:52:27.037Z,75
2017-03-22T06:53:26.721Z,75
2017-03-22T06:54:26.692Z,75
2017-03-22T06:55:26.348Z,80
2017-03-22T06:56:26.967Z,75
2017-03-22T06:57:26.938Z,75
2017-03-22T06:58:26.920Z,75
2017-03-22T06:59:26.900Z,80
2017-03-22T07:00:26.549Z,80
2017-03-22T07:01:26.845Z,80
2017-03-22T07:02:26.528Z,80
2017-03-22T07:03:26.500Z,85
2017-03-22T07:04:26.171Z,85
2017-03-22T07:05:26.769Z,90
2017-03-22T07:06:26.748Z,90
2017-03-22T07:07:26.411Z,90
2017-03-22T07:08:26.709Z,95
2017-03-22T07:09:26.691Z,95
2017-03-22T07:10:26.352Z,100
2017-03-22T07:11:26.017Z,100
2017-03-22T07:12:26.623Z,105
2017-03-22T07:13:26.606Z,105
2017-03-22T07:14:26.580Z,105
2017-03-22T07:15:26.546Z,105
2017-03-22T07:16:26.219Z,110
2017-03-22T07:17:26.515Z,110
2017-03-22T07:18:26.495Z,110
2017-03-22T07:19:26.484Z,110
2017-03-22T07:20:26.140Z,110
2017-03-22T07:21:26.121Z,105
2017-03-22T07:22:26.411Z,100
2017-03-22T07:23:26.098Z,100
2017-03-22T07:24:26.595Z,100
2017-03-22T07:25:26.034Z,100
2017-03-22T07:26:26.327Z,100
2017-03-22T07:27:26.308Z,100
2017-03-22T07:28:26.291Z,100
2017-03-22T07:29:25.959Z,105
2017-03-22T07:30:26.247Z,110
2017-03-22T07:31:26.230Z,115
2017-03-22T07:32:25.899Z,120
2017-03-22T07:33:26.194Z,125
2017-03-22T07:34:25.918Z,125
2017-03-22T07:35:26.147Z,125
2017-03-22T07:36:26.128Z,125
2017-03-22T07:37:26.107Z,125
2017-03-22T07:38:26.098Z,125
2017-03-22T07:39:26.074Z,120
2017-03-22T07:40:26.055Z,120
2017-03-22T07:41:26.092Z,115
2017-03-22T07:42:25.409Z,115
2017-03-22T07:43:25.401Z,110
2017-03-22T07:44:25.675Z,110
2017-03-22T07:45:25.639Z,110
2017-03-22T07:46:25.928Z,105
2017-03-22T07:47:25.598Z,105
2017-03-22T07:48:25.574Z,105
2017-03-22T07:49:25.883Z,105
2017-03-22T07:50:25.849Z,105
2017-03-22T07:51:25.845Z,105
2017-03-22T07:52:25.812Z,100
2017-03-22T07:53:25.476Z,100
2017-03-22T07:54:25.781Z,100
2017-03-22T07:55:25.437Z,100
2017-03-22T07:56:25.424Z,100
2017-03-22T07:57:25.398Z,100
2017-03-22T07:58:25.393Z,100
2017-03-22T07:59:25.369Z,100
2017-03-22T08:00:25.345Z,100
2017-03-22T08:01:25.645Z,105
2017-03-22T08:02:25.308Z,105
2017-03-22T08:03:25.610Z,105
2017-03-22T08:04:25.574Z,105
2017-03-22T08:05:25.564Z,110
2017-03-22T08:06:25.543Z,110
2017-03-22T08:07:25.528Z,115
2017-03-22T08:08:25.511Z,120
2017-03-22T08:09:25.497Z,120
2017-03-22T08:10:25.501Z,120
2017-03-22T08:11:25.445Z,125
2017-03-22T08:12:25.424Z,130
2017-03-22T08:13:25.416Z,130
2017-03-22T08:14:25.394Z,135
2017-03-22T08:15:25.378Z,130
2017-03-22T08:16:25.032Z,140
2017-03-22T08:17:25.331Z,145
2017-03-22T08:18:25.319Z,150
2017-03-22T08:19:25.300Z,240
2017-03-22T08:20:25.275Z,675
2017-03-22T08:21:25.256Z,930
2017-03-22T08:22:24.959Z,925
2017-03-22T08:23:25.229Z,970
2017-03-22T08:24:25.232Z,1005
2017-03-22T08:25:24.863Z,950
2017-03-22T08:26:25.168Z,865
2017-03-22T08:27:25.157Z,775
2017-03-22T08:28:25.141Z,900
2017-03-22T08:29:25.131Z,940
2017-03-22T08:30:25.114Z,1120
2017-03-22T08:31:24.791Z,1185
2017-03-22T08:32:25.081Z,1150
2017-03-22T08:33:25.059Z,1000
2017-03-22T08:34:24.426Z,970
2017-03-22T08:35:24.728Z,670
2017-03-22T08:36:25.024Z,340
2017-03-22T08:37:25.022Z,345
2017-03-22T08:38:25.007Z,715
2017-03-22T08:39:24.686Z,625
2017-03-22T08:40:24.674Z,675
2017-03-22T08:41:24.657Z,785
2017-03-22T08:42:24.657Z,755
2017-03-22T08:43:25.038Z,775
2017-03-22T08:44:24.947Z,855
2017-03-22T08:45:24.943Z,655
2017-03-22T08:46:24.618Z,595
2017-03-22T08:47:24.926Z,645
2017-03-22T08:48:24.916Z,470
2017-03-22T08:49:24.911Z,450
2017-03-22T08:50:24.589Z,470
2017-03-22T08:51:24.582Z,510
2017-03-22T08:52:24.885Z,735
2017-03-22T08:53:24.876Z,915
2017-03-22T08:54:24.919Z,900
2017-03-22T08:55:24.867Z,850
2017-03-22T08:56:24.857Z,795
2017-03-22T08:57:24.842Z,905
2017-03-22T08:58:24.730Z,795
2017-03-22T08:59:25.132Z,620
2017-03-22T09:00:24.509Z,760
2017-03-22T09:01:24.511Z,865
2017-03-22T09:02:24.798Z,740
2017-03-22T09:03:24.492Z,675
2017-03-22T09:04:24.159Z,735
2017-03-22T09:05:24.473Z,650
2017-03-22T09:06:24.459Z,510
2017-03-22T09:07:24.493Z,480
2017-03-22T09:08:24.761Z,525
2017-03-22T09:09:24.741Z,320
2017-03-22T09:10:24.743Z,270
2017-03-22T09:11:24.112Z,335
2017-03-22T09:12:24.741Z,415
2017-03-22T09:13:24.400Z,615
2017-03-22T09:14:24.705Z,670
2017-03-22T09:15:24.717Z,880
2017-03-22T09:16:24.486Z,1070
2017-03-22T09:17:24.068Z,1025
2017-03-22T09:18:24.437Z,905
2017-03-22T09:19:24.349Z,865
2017-03-22T09:20:24.586Z,1045
2017-03-22T09:21:24.346Z,1335
2017-03-22T09:22:24.356Z,1170
2017-03-22T09:23:24.018Z,890
2017-03-22T09:24:24.835Z,775
2017-03-22T09:25:23.987Z,530
2017-03-22T09:26:24.385Z,335
2017-03-22T09:27:24.650Z,365
2017-03-22T09:28:24.606Z,565
2017-03-22T09:29:24.295Z,460
2017-03-22T09:30:24.590Z,250
2017-03-22T09:31:24.721Z,235
2017-03-22T09:32:24.624Z,300
2017-03-22T09:33:24.553Z,315
2017-03-22T09:34:24.548Z,260
2017-03-22T09:35:24.588Z,205
2017-03-22T09:36:24.222Z,290
2017-03-22T09:37:24.519Z,435
2017-03-22T09:38:24.531Z,515
2017-03-22T09:39:24.511Z,590
2017-03-22T09:40:24.496Z,540
2017-03-22T09:41:24.522Z,465
2017-03-22T09:42:24.494Z,570
2017-03-22T09:43:24.160Z,770
2017-03-22T09:44:24.151Z,445
2017-03-22T09:45:23.835Z,275
2017-03-22T09:46:24.454Z,395
2017-03-22T09:47:24.440Z,405
2017-03-22T09:48:23.802Z,325
2017-03-22T09:49:24.419Z,410
2017-03-22T09:50:24.412Z,900
2017-03-22T09:51:24.400Z,910
2017-03-22T09:52:24.081Z,545
2017-03-22T09:53:24.418Z,575
2017-03-22T09:54:23.848Z,585
2017-03-22T09:55:24.061Z,770
2017-03-22T09:56:24.056Z,970
2017-03-22T09:57:24.044Z,1005
2017-03-22T09:58:24.044Z,970
2017-03-22T09:59:24.021Z,670
2017-03-22T10:00:24.334Z,410
2017-03-22T10:01:24.329Z,740
2017-03-22T10:02:23.380Z,755
2017-03-22T10:03:23.990Z,760
2017-03-22T10:04:23.672Z,765
2017-03-22T10:05:23.983Z,630
2017-03-22T10:06:23.986Z,395
2017-03-22T10:07:23.970Z,575
2017-03-22T10:08:23.636Z,700
2017-03-22T10:09:23.935Z,630
2017-03-22T10:10:24.258Z,705
2017-03-22T10:11:23.913Z,590
2017-03-22T10:12:23.912Z,475
2017-03-22T10:13:24.222Z,675
2017-03-22T10:14:23.914Z,635
2017-03-22T10:15:23.585Z,565
2017-03-22T10:16:22.941Z,1030
2017-03-22T10:17:23.874Z,810
2017-03-22T10:18:23.864Z,575
2017-03-22T10:19:23.600Z,585
2017-03-22T10:20:23.837Z,770
2017-03-22T10:21:24.162Z,810
2017-03-22T10:22:23.528Z,840
2017-03-22T10:23:23.824Z,940
2017-03-22T10:24:23.870Z,1065
2017-03-22T10:25:24.120Z,1385
2017-03-22T10:26:23.514Z,1600
2017-03-22T10:27:24.107Z,1530
2017-03-22T10:28:24.094Z,1145
2017-03-22T10:29:23.777Z,880
2017-03-22T10:30:24.103Z,1030
2017-03-22T10:31:24.073Z,980
2017-03-22T10:32:23.776Z,850
2017-03-22T10:33:23.439Z,720
2017-03-22T10:34:24.096Z,865
2017-03-22T10:35:23.741Z,735
2017-03-22T10:36:23.723Z,415
2017-03-22T10:37:23.409Z,610
2017-03-22T10:38:24.033Z,840
2017-03-22T10:39:24.026Z,1010
2017-03-22T10:40:24.026Z,1290
2017-03-22T10:41:23.703Z,1395
2017-03-22T10:42:23.688Z,1445
2017-03-22T10:43:24.003Z,1575
2017-03-22T10:44:23.999Z,1475
2017-03-22T10:45:23.994Z,1360
2017-03-22T10:46:23.672Z,1445
2017-03-22T10:47:23.979Z,1525
2017-03-22T10:48:23.970Z,1650
2017-03-22T10:49:23.356Z,1400
2017-03-22T10:50:23.657Z,1075
2017-03-22T10:51:23.650Z,885
2017-03-22T10:52:23.967Z,1030
2017-03-22T10:53:23.686Z,1070
2017-03-22T10:54:23.632Z,1070
2017-03-22T10:55:23.956Z,1255
2017-03-22T10:56:23.944Z,1430
2017-03-22T10:57:23.931Z,1120
2017-03-22T10:58:23.930Z,1000
2017-03-22T10:59:23.614Z,1285
2017-03-22T11:00:23.924Z,1055
2017-03-22T11:01:23.606Z,745
2017-03-22T11:02:23.288Z,645
2017-03-22T11:03:23.598Z,530
2017-03-22T11:04:23.591Z,505
2017-03-22T11:05:23.592Z,555
2017-03-22T11:06:23.584Z,695
2017-03-22T11:07:23.585Z,575
2017-03-22T11:08:23.570Z,545
2017-03-22T11:09:23.260Z,525
2017-03-22T11:10:23.882Z,515
2017-03-22T11:11:23.560Z,530
2017-03-22T11:12:23.555Z,545
2017-03-22T11:13:23.237Z,545
2017-03-22T11:14:23.545Z,540
2017-03-22T11:15:23.228Z,535
2017-03-22T11:16:23.539Z,515
2017-03-22T11:17:23.618Z,500
2017-03-22T11:18:23.526Z,505
2017-03-22T11:19:23.512Z,490
2017-03-22T11:20:23.820Z,500
2017-03-22T11:21:23.501Z,540
2017-03-22T11:22:23.860Z,540
2017-03-22T11:23:23.823Z,560
2017-03-22T11:24:24.049Z,665
2017-03-22T11:25:23.468Z,800
2017-03-22T11:26:23.465Z,580
2017-03-22T11:27:23.774Z,515
2017-03-22T11:28:23.457Z,460
2017-03-22T11:29:23.756Z,425
2017-03-22T11:30:23.763Z,400
2017-03-22T11:31:23.741Z,395
2017-03-22T11:32:23.739Z,685
2017-03-22T11:33:23.721Z,365
2017-03-22T11:34:23.624Z,370
2017-03-22T11:35:24.125Z,385
2017-03-22T11:36:23.586Z,395
2017-03-22T11:37:23.092Z,390
2017-03-22T11:38:23.708Z,400
2017-03-22T11:39:23.460Z,405
2017-03-22T11:40:23.797Z,400
2017-03-22T11:41:23.449Z,395
2017-03-22T11:42:23.760Z,385
2017-03-22T11:43:23.438Z,370
2017-03-22T11:44:23.719Z,350
2017-03-22T11:45:23.725Z,335
2017-03-22T11:46:23.671Z,340
2017-03-22T11:47:23.005Z,345
2017-03-22T11:48:23.630Z,345
2017-03-22T11:49:22.989Z,370
2017-03-22T11:50:23.287Z,450
2017-03-22T11:51:23.292Z,580
2017-03-22T11:52:23.285Z,550
2017-03-22T11:53:22.957Z,745
2017-03-22T11:54:22.637Z,575
2017-03-22T11:55:23.566Z,760
2017-03-22T11:56:23.537Z,685
2017-03-22T11:57:23.228Z,655
2017-03-22T11:58:23.227Z,650
2017-03-22T11:59:22.903Z,645
2017-03-22T12:00:22.900Z,800
2017-03-22T12:01:23.519Z,635
2017-03-22T12:02:23.499Z,765
2017-03-22T12:03:23.497Z,910
2017-03-22T12:04:23.489Z,725
2017-03-22T12:05:23.472Z,665
2017-03-22T12:06:23.421Z,735
2017-03-22T12:07:22.832Z,930
2017-03-22T12:08:23.007Z,975
2017-03-22T12:09:22.509Z,810
2017-03-22T12:10:23.132Z,850
2017-03-22T12:11:23.008Z,1025
2017-03-22T12:12:23.419Z,930
2017-03-22T12:13:23.621Z,1125
2017-03-22T12:14:23.427Z,1005
2017-03-22T12:15:22.818Z,1060
2017-03-22T12:16:22.995Z,1185
2017-03-22T12:17:23.609Z,1250
2017-03-22T12:18:23.485Z,1095
2017-03-22T12:19:22.771Z,1115
2017-03-22T12:20:22.952Z,1860
2017-03-22T12:21:23.044Z,1890
2017-03-22T12:22:23.064Z,1410
2017-03-22T12:23:23.354Z,1815
2017-03-22T12:24:22.714Z,1715
2017-03-22T12:25:23.354Z,1760
2017-03-22T12:26:23.025Z,695
2017-03-22T12:27:23.346Z,730
2017-03-22T12:28:23.338Z,905
2017-03-22T12:29:23.335Z,975
2017-03-22T12:30:23.074Z,1370
2017-03-22T12:31:23.010Z,670
2017-03-22T12:32:23.009Z,690
2017-03-22T12:33:23.013Z,1200
2017-03-22T12:34:23.216Z,635
2017-03-22T12:35:23.311Z,680
2017-03-22T12:36:22.996Z,600
2017-03-22T12:37:23.006Z,630
2017-03-22T12:38:22.054Z,595
2017-03-22T12:39:22.978Z,860
2017-03-22T12:40:22.977Z,665
2017-03-22T12:41:22.988Z,835
2017-03-22T12:42:22.980Z,650
2017-03-22T12:43:22.989Z,595
2017-03-22T12:44:22.652Z,655
2017-03-22T12:45:22.960Z,765
2017-03-22T12:46:22.952Z,640
2017-03-22T12:47:23.263Z,605
2017-03-22T12:48:22.944Z,600
2017-03-22T12:49:23.263Z,570
2017-03-22T12:50:23.261Z,650
2017-03-22T12:51:23.248Z,590
2017-03-22T12:52:23.238Z,705
2017-03-22T12:53:23.234Z,535
2017-03-22T12:54:23.234Z,525
2017-03-22T12:55:23.228Z,495
2017-03-22T12:56:22.906Z,500
2017-03-22T12:57:23.211Z,500
2017-03-22T12:58:23.203Z,475
2017-03-22T12:59:23.217Z,575
2017-03-22T13:00:23.249Z,495
2017-03-22T13:01:23.195Z,490
2017-03-22T13:02:23.193Z,495
2017-03-22T13:03:22.855Z,490
2017-03-22T13:04:22.850Z,475
2017-03-22T13:05:23.157Z,455
2017-03-22T13:06:23.146Z,440
2017-03-22T13:07:23.184Z,435
2017-03-22T13:08:23.133Z,430
2017-03-22T13:09:22.875Z,440
2017-03-22T13:10:22.850Z,450
2017-03-22T13:11:22.540Z,465
2017-03-22T13:12:22.793Z,470
2017-03-22T13:13:22.482Z,465
2017-03-22T13:14:22.802Z,480
2017-03-22T13:15:23.087Z,475
2017-03-22T13:16:23.132Z,480
2017-03-22T13:17:23.104Z,485
2017-03-22T13:18:23.143Z,490
2017-03-22T13:19:22.455Z,525
2017-03-22T13:20:22.551Z,565
2017-03-22T13:21:22.733Z,580
2017-03-22T13:22:23.096Z,660
2017-03-22T13:23:22.719Z,670
2017-03-22T13:24:23.238Z,640
2017-03-22T13:25:22.745Z,770
2017-03-22T13:26:22.047Z,645
2017-03-22T13:27:23.012Z,660
2017-03-22T13:28:22.971Z,780
2017-03-22T13:29:22.652Z,925
2017-03-22T13:30:22.645Z,695
2017-03-22T13:31:22.987Z,820
2017-03-22T13:32:22.329Z,1075
2017-03-22T13:33:22.618Z,1120
2017-03-22T13:34:21.985Z,640
2017-03-22T13:35:22.934Z,625
2017-03-22T13:36:22.643Z,835
2017-03-22T13:37:23.140Z,555
2017-03-22T13:38:22.920Z,530
2017-03-22T13:39:22.649Z,520
2017-03-22T13:40:22.591Z,435
2017-03-22T13:41:22.780Z,380
2017-03-22T13:42:22.575Z,350
2017-03-22T13:43:22.261Z,325
2017-03-22T13:44:22.556Z,315
2017-03-22T13:45:22.543Z,320
2017-03-22T13:46:22.207Z,320
2017-03-22T13:47:21.885Z,320
2017-03-22T13:48:22.822Z,315
2017-03-22T13:49:22.185Z,315
2017-03-22T13:50:22.495Z,320
2017-03-22T13:51:22.166Z,340
2017-03-22T13:52:22.168Z,380
2017-03-22T13:53:22.143Z,395
2017-03-22T13:54:22.452Z,390
2017-03-22T13:55:22.445Z,405
2017-03-22T13:56:22.572Z,420
2017-03-22T13:57:22.229Z,430
2017-03-22T13:58:22.864Z,455
2017-03-22T13:59:22.531Z,460
2017-03-22T14:00:22.487Z,455
2017-03-22T14:01:22.421Z,475
2017-03-22T14:02:22.077Z,530
2017-03-22T14:03:22.060Z,820
2017-03-22T14:04:22.053Z,670
2017-03-22T14:05:22.039Z,895
2017-03-22T14:06:22.053Z,495
2017-03-22T14:07:22.027Z,540
2017-03-22T14:08:22.642Z,355
2017-03-22T14:09:22.015Z,360
2017-03-22T14:10:22.321Z,450